createdAt,value
2022-12-04T00:00:32.027Z,34.28
2022-12-04T00:03:35.215Z,37.38
2022-12-04T00:06:37.510Z,33.70
2022-12-04T00:09:40.035Z,36.00
2022-12-04T00:12:42.310Z,31.73
2022-12-04T00:15:45.104Z,35.15
2022-12-04T00:18:47.544Z,37.05
2022-12-04T00:21:52.291Z,33.55
2022-12-04T00:24:54.522Z,32.05
2022-12-04T00:27:57.449Z,35.80
2022-12-04T00:30:59.928Z,38.03
2022-12-04T00:34:02.529Z,35.33
2022-12-04T00:37:04.817Z,31.42
2022-12-04T00:40:08.167Z,33.22
2022-12-04T00:43:10.383Z,33.70
2022-12-04T00:46:14.268Z,37.03
2022-12-04T00:49:16.575Z,34.63
2022-12-04T00:52:19.130Z,33.63
2022-12-04T00:55:21.390Z,35.08
2022-12-04T00:58:23.999Z,35.38
2022-12-04T01:01:30.419Z,37.65
2022-12-04T01:04:33.129Z,35.10
2022-12-04T01:07:35.410Z,35.33
2022-12-04T01:10:42.223Z,36.42
2022-12-04T01:13:45.087Z,36.60
2022-12-04T01:16:47.671Z,36.70
2022-12-04T01:19:50.179Z,35.40
2022-12-04T01:22:52.762Z,37.95
2022-12-04T01:25:58.400Z,39.15
2022-12-04T01:29:01.971Z,36.85
2022-12-04T01:32:04.625Z,37.20
2022-12-04T01:35:07.510Z,38.85
2022-12-04T01:38:09.729Z,37.28
2022-12-04T01:41:14.038Z,34.33
2022-12-04T01:47:23.742Z,38.85
2022-12-04T01:50:26.001Z,36.00
2022-12-04T01:53:30.343Z,43.00
2022-12-04T01:59:50.433Z,35.13
2022-12-04T02:02:53.021Z,36.10
2022-12-04T02:05:55.776Z,37.40
2022-12-04T02:08:58.038Z,36.75
2022-12-04T02:12:10.906Z,38.13
2022-12-04T02:15:39.413Z,39.47
2022-12-04T02:19:06.650Z,37.45
2022-12-04T02:22:29.972Z,42.00
2022-12-04T02:25:47.935Z,39.93
2022-12-04T02:28:57.734Z,40.90
2022-12-04T02:32:15.282Z,37.17
2022-12-04T02:35:41.833Z,37.47
2022-12-04T02:38:54.237Z,38.58
2022-12-04T02:42:05.089Z,38.40
2022-12-04T02:45:20.186Z,35.78
2022-12-04T02:48:25.514Z,42.40
2022-12-04T02:51:34.482Z,39.50
2022-12-04T02:54:41.395Z,37.65
2022-12-04T02:57:50.819Z,40.72
2022-12-04T03:00:55.885Z,42.33
2022-12-04T03:04:03.889Z,38.47
2022-12-04T03:07:16.888Z,38.08
2022-12-04T03:10:27.910Z,39.60
2022-12-04T03:13:37.930Z,40.42
2022-12-04T03:16:42.402Z,41.10
2022-12-04T03:19:54.543Z,40.70
2022-12-04T03:23:05.194Z,43.63
2022-12-04T03:26:26.501Z,42.95
2022-12-04T03:29:39.342Z,41.72
2022-12-04T03:33:13.046Z,42.83
2022-12-04T03:36:23.961Z,41.97
2022-12-04T03:39:46.570Z,37.75
2022-12-04T03:42:58.337Z,36.25
2022-12-04T03:46:17.572Z,37.28
2022-12-04T03:49:27.897Z,38.88
2022-12-04T03:52:34.478Z,34.08
2022-12-04T03:55:43.851Z,36.25
2022-12-04T03:58:50.503Z,38.78
2022-12-04T04:01:56.199Z,37.88
2022-12-04T04:05:01.407Z,40.58
2022-12-04T04:08:26.315Z,41.30
2022-12-04T04:11:38.514Z,38.65
2022-12-04T04:15:28.937Z,43.17
2022-12-04T04:18:51.333Z,42.60
2022-12-04T04:22:13.416Z,40.72
2022-12-04T04:25:24.313Z,40.40
2022-12-04T04:28:38.407Z,35.72
2022-12-04T04:31:47.213Z,39.22
2022-12-04T04:35:05.320Z,38.75
2022-12-04T04:38:23.683Z,40.05
2022-12-04T04:41:40.027Z,41.97
2022-12-04T04:45:07.014Z,40.35
2022-12-04T04:48:20.474Z,43.22
2022-12-04T04:51:23.933Z,43.53
2022-12-04T04:54:28.255Z,43.73
2022-12-04T04:57:35.743Z,40.47
2022-12-04T05:00:39.204Z,37.95
2022-12-04T05:03:42.324Z,41.90
2022-12-04T05:06:44.672Z,38.20
2022-12-04T05:09:47.203Z,38.08
2022-12-04T05:12:49.452Z,39.58
2022-12-04T05:16:00.005Z,35.03
2022-12-04T05:19:20.933Z,36.47
2022-12-04T05:22:29.555Z,36.13
2022-12-04T05:25:31.851Z,37.15
2022-12-04T05:28:34.529Z,35.25
2022-12-04T05:31:36.797Z,35.45
2022-12-04T05:34:39.558Z,36.47
2022-12-04T05:37:41.794Z,37.97
2022-12-04T05:40:44.322Z,35.95
2022-12-04T05:43:46.584Z,34.33
2022-12-04T05:46:52.030Z,41.45
2022-12-04T05:49:54.623Z,37.70
2022-12-04T05:52:57.363Z,36.72
2022-12-04T05:56:01.954Z,36.95
2022-12-04T05:59:04.471Z,38.25
2022-12-04T06:02:06.763Z,36.72
2022-12-04T06:05:09.326Z,33.88
2022-12-04T06:08:12.159Z,37.38
2022-12-04T06:11:18.950Z,32.55
2022-12-04T06:14:21.168Z,32.90
2022-12-04T06:17:23.837Z,32.60
2022-12-04T06:20:26.081Z,32.70
2022-12-04T06:23:28.597Z,42.72
2022-12-04T06:26:30.834Z,40.70
2022-12-04T06:29:33.917Z,41.37
2022-12-04T06:32:36.116Z,37.72
2022-12-04T06:35:38.640Z,41.55
2022-12-04T06:38:41.419Z,41.40
2022-12-04T06:41:43.920Z,40.83
2022-12-04T06:44:46.283Z,45.30
2022-12-04T06:47:48.773Z,45.15
2022-12-04T06:50:58.635Z,47.60
2022-12-04T06:54:02.046Z,41.13
2022-12-04T06:57:04.375Z,46.23
2022-12-04T07:00:07.590Z,46.33
2022-12-04T07:03:09.843Z,44.60
2022-12-04T07:06:16.253Z,45.45
2022-12-04T07:09:18.798Z,58.83
2022-12-04T07:12:21.450Z,47.53
2022-12-04T07:15:23.726Z,45.15
2022-12-04T07:18:26.256Z,46.35
2022-12-04T07:21:31.450Z,46.90
2022-12-04T07:24:33.958Z,43.55
2022-12-04T07:27:36.254Z,51.00
2022-12-04T07:30:38.937Z,43.00
2022-12-04T07:33:41.718Z,47.78
2022-12-04T07:36:44.339Z,46.93
2022-12-04T07:39:46.638Z,43.03
2022-12-04T07:42:49.218Z,45.58
2022-12-04T07:45:51.958Z,42.20
2022-12-04T07:48:58.724Z,46.88
2022-12-04T07:52:01.097Z,46.70
2022-12-04T07:55:05.455Z,45.45
2022-12-04T08:01:12.390Z,42.33
2022-12-04T08:04:15.541Z,42.88
2022-12-04T08:07:18.584Z,68.10
2022-12-04T08:10:21.152Z,57.47
2022-12-04T08:13:23.539Z,48.13
2022-12-04T08:16:28.063Z,45.55
2022-12-04T08:19:30.358Z,44.33
2022-12-04T08:22:32.895Z,44.42
2022-12-04T08:25:39.493Z,47.38
2022-12-04T08:28:42.500Z,45.67
2022-12-04T08:31:44.870Z,46.45
2022-12-04T08:34:51.164Z,40.55
2022-12-04T08:37:57.780Z,57.08
2022-12-04T08:41:05.081Z,47.13
2022-12-04T08:44:07.535Z,45.58
2022-12-04T08:47:10.016Z,40.70
2022-12-04T08:50:13.769Z,43.40
2022-12-04T08:56:24.443Z,45.60
2022-12-04T08:59:28.409Z,43.97
2022-12-04T09:02:32.754Z,42.67
2022-12-04T09:05:36.901Z,43.25
2022-12-04T09:08:40.903Z,42.92
2022-12-04T09:11:47.669Z,43.40
2022-12-04T09:14:50.721Z,41.70
2022-12-04T09:17:58.274Z,41.58
2022-12-04T09:21:05.930Z,37.00
2022-12-04T09:24:09.541Z,40.20
2022-12-04T09:27:14.864Z,35.97
2022-12-04T09:30:18.498Z,32.08
2022-12-04T09:33:22.240Z,36.85
2022-12-04T09:36:25.434Z,38.85
2022-12-04T09:39:27.695Z,35.33
2022-12-04T09:42:30.194Z,33.15
2022-12-04T09:45:50.210Z,35.33
2022-12-04T09:48:53.902Z,36.47
2022-12-04T09:52:00.611Z,36.03
2022-12-04T09:55:05.409Z,36.63
2022-12-04T09:58:14.170Z,36.30
2022-12-04T10:01:32.879Z,38.08
2022-12-04T10:04:35.475Z,32.90
2022-12-04T10:07:53.376Z,36.15
2022-12-04T10:11:13.829Z,31.05
2022-12-04T10:14:50.191Z,32.72
2022-12-04T10:18:04.375Z,34.92
2022-12-04T10:21:06.706Z,33.72
2022-12-04T10:24:36.301Z,33.45
2022-12-04T10:27:47.047Z,31.55
2022-12-04T10:30:52.559Z,28.62
2022-12-04T10:34:13.546Z,31.50
2022-12-04T10:37:16.605Z,30.65
2022-12-04T10:40:25.216Z,29.37
2022-12-04T10:43:45.058Z,29.87
2022-12-04T10:46:48.226Z,25.85
2022-12-04T10:49:59.684Z,30.50
2022-12-04T10:53:01.966Z,29.27
2022-12-04T10:56:28.628Z,25.25
2022-12-04T10:59:31.268Z,25.95
2022-12-04T11:02:34.691Z,24.85
2022-12-04T11:05:55.408Z,23.70
2022-12-04T11:08:59.465Z,24.02
2022-12-04T11:12:16.762Z,23.27
2022-12-04T11:15:19.399Z,24.17
2022-12-04T11:18:28.244Z,22.25
2022-12-04T11:21:32.405Z,21.25
2022-12-04T11:27:38.137Z,35.55
2022-12-04T11:30:40.604Z,32.83
2022-12-04T11:33:54.537Z,85.95
2022-12-04T11:36:57.820Z,19.90
2022-12-04T11:40:03.471Z,22.27
2022-12-04T11:43:13.915Z,19.90
2022-12-04T11:46:22.371Z,23.50
2022-12-04T11:49:26.955Z,105.93
2022-12-04T11:52:43.698Z,21.02
2022-12-04T11:56:05.072Z,22.92
2022-12-04T11:59:32.506Z,20.25
2022-12-04T12:02:50.405Z,19.08
2022-12-04T12:05:53.809Z,19.15
2022-12-04T12:09:14.375Z,21.87
2022-12-04T12:12:35.293Z,20.23
2022-12-04T12:16:03.483Z,30.65
2022-12-04T12:19:33.236Z,20.33
2022-12-04T12:23:19.871Z,18.23
2022-12-04T12:26:26.792Z,18.85
2022-12-04T12:29:32.520Z,21.15
2022-12-04T12:33:14.333Z,20.00
2022-12-04T12:36:21.648Z,18.15
2022-12-04T12:39:31.554Z,21.50
2022-12-04T12:42:44.881Z,20.00
2022-12-04T12:46:18.234Z,19.00
2022-12-04T12:49:32.251Z,20.65
2022-12-04T12:55:54.143Z,21.87
2022-12-04T12:59:00.730Z,19.40
2022-12-04T13:02:30.278Z,19.77
2022-12-04T13:05:40.960Z,20.10
2022-12-04T13:08:52.815Z,20.75
2022-12-04T13:12:15.812Z,18.33
2022-12-04T13:15:24.535Z,22.50
2022-12-04T13:18:32.349Z,18.12
2022-12-04T13:21:46.842Z,17.98
2022-12-04T13:24:55.885Z,21.05
2022-12-04T13:28:31.503Z,18.00
2022-12-04T13:31:38.416Z,18.83
2022-12-04T13:35:10.083Z,22.50
2022-12-04T13:38:28.878Z,21.00
2022-12-04T13:41:38.809Z,22.27
2022-12-04T13:44:41.388Z,19.27
2022-12-04T13:47:43.663Z,21.75
2022-12-04T13:50:46.240Z,20.62
2022-12-04T13:53:48.695Z,22.62
2022-12-04T13:56:55.495Z,21.40
2022-12-04T14:00:24.472Z,22.92
2022-12-04T14:03:34.629Z,24.67
2022-12-04T14:06:41.338Z,21.33
2022-12-04T14:09:53.258Z,25.60
2022-12-04T14:13:00.960Z,26.75
2022-12-04T14:16:15.793Z,24.40
2022-12-04T14:19:39.193Z,27.17
2022-12-04T14:22:44.247Z,32.10
2022-12-04T14:25:46.544Z,25.75
2022-12-04T14:28:50.447Z,25.70
2022-12-04T14:31:55.123Z,27.85
2022-12-04T14:34:58.995Z,27.55
2022-12-04T14:38:04.064Z,28.12
2022-12-04T14:41:06.845Z,26.00
2022-12-04T14:44:25.686Z,28.15
2022-12-04T14:47:54.327Z,27.05
2022-12-04T14:50:56.549Z,28.92
2022-12-04T14:54:17.611Z,33.35
2022-12-04T14:57:38.276Z,32.42
2022-12-04T15:00:50.325Z,29.63
2022-12-04T15:03:59.099Z,30.30
2022-12-04T15:07:02.540Z,26.48
2022-12-04T15:10:38.213Z,29.47
2022-12-04T15:13:41.179Z,29.90
2022-12-04T15:16:43.602Z,27.02
2022-12-04T15:19:46.339Z,30.23
2022-12-04T15:22:49.073Z,32.30
2022-12-04T15:25:54.528Z,31.30
2022-12-04T15:29:01.408Z,29.27
2022-12-04T15:32:12.006Z,33.53
2022-12-04T15:35:23.266Z,31.40
2022-12-04T15:38:26.609Z,29.50
2022-12-04T15:41:30.906Z,32.80
2022-12-04T15:44:35.349Z,30.58
2022-12-04T15:47:58.795Z,35.50
2022-12-04T15:51:07.139Z,33.27
2022-12-04T15:54:24.492Z,31.77
2022-12-04T15:57:31.379Z,30.65
2022-12-04T16:00:45.495Z,37.85
2022-12-04T16:03:51.266Z,33.20
2022-12-04T16:06:53.863Z,31.52
2022-12-04T16:10:03.548Z,30.62
2022-12-04T16:13:06.783Z,31.62
2022-12-04T16:16:14.546Z,32.03
2022-12-04T16:19:29.065Z,32.13
2022-12-04T16:22:32.138Z,28.45
2022-12-04T16:25:34.688Z,30.73
2022-12-04T16:28:37.258Z,30.00
2022-12-04T16:31:39.595Z,30.23
2022-12-04T16:34:42.264Z,31.67
2022-12-04T16:37:44.577Z,33.13
2022-12-04T16:40:48.536Z,26.95
2022-12-04T16:43:56.725Z,31.33
2022-12-04T16:46:59.330Z,30.45
2022-12-04T16:50:01.701Z,31.20
2022-12-04T16:53:04.269Z,28.77
2022-12-04T16:56:06.721Z,27.92
2022-12-04T16:59:12.201Z,28.87
2022-12-04T17:02:23.429Z,28.83
2022-12-04T17:05:29.212Z,28.40
2022-12-04T17:08:31.999Z,28.12
2022-12-04T17:11:34.610Z,33.70
2022-12-04T17:14:36.894Z,30.92
2022-12-04T17:17:40.200Z,29.90
2022-12-04T17:20:43.788Z,27.05
2022-12-04T17:23:46.424Z,27.92
2022-12-04T17:26:48.805Z,31.40
2022-12-04T17:29:51.490Z,29.05
2022-12-04T17:32:53.791Z,29.25
2022-12-04T17:36:00.309Z,26.67
2022-12-04T17:39:02.731Z,28.73
2022-12-04T17:42:05.336Z,28.95
2022-12-04T17:45:09.537Z,27.67
2022-12-04T17:48:12.205Z,28.48
2022-12-04T17:51:20.082Z,29.12
2022-12-04T17:54:23.044Z,31.12
2022-12-04T17:57:25.396Z,34.22
2022-12-04T18:00:28.041Z,31.30
2022-12-04T18:03:30.816Z,32.63
2022-12-04T18:06:44.291Z,35.72
2022-12-04T18:09:48.085Z,37.45
2022-12-04T18:12:50.607Z,33.33
2022-12-04T18:15:53.396Z,31.25
2022-12-04T18:18:57.093Z,35.30
2022-12-04T18:21:59.926Z,34.20
2022-12-04T18:25:02.531Z,34.10
2022-12-04T18:28:05.252Z,34.17
2022-12-04T18:31:08.677Z,33.25
2022-12-04T18:34:14.276Z,31.85
2022-12-04T18:37:16.571Z,32.17
2022-12-04T18:40:22.131Z,33.90
2022-12-04T18:43:24.538Z,34.75
2022-12-04T18:46:27.251Z,30.92
2022-12-04T18:49:29.725Z,32.22
2022-12-04T18:52:35.792Z,27.35
2022-12-04T18:55:38.571Z,32.15
2022-12-04T18:58:41.430Z,32.03
2022-12-04T19:01:44.250Z,29.23
2022-12-04T19:04:46.897Z,29.60
2022-12-04T19:07:50.441Z,28.23
2022-12-04T19:10:53.050Z,29.67
2022-12-04T19:13:55.745Z,31.15
2022-12-04T19:16:58.491Z,30.77
2022-12-04T19:20:01.620Z,29.63
2022-12-04T19:23:04.224Z,31.15
2022-12-04T19:26:06.724Z,30.62
2022-12-04T19:29:12.887Z,27.25
2022-12-04T19:32:15.321Z,31.98
2022-12-04T19:35:17.933Z,29.60
2022-12-04T19:38:20.221Z,31.02
2022-12-04T19:41:25.826Z,27.67
2022-12-04T19:47:50.801Z,25.77
2022-12-04T19:50:54.211Z,25.52
2022-12-04T19:53:56.773Z,25.95
2022-12-04T19:56:59.013Z,25.65
2022-12-04T20:00:02.113Z,26.75
2022-12-04T20:03:13.917Z,28.02
2022-12-04T20:06:19.375Z,30.48
2022-12-04T20:09:22.420Z,30.80
2022-12-04T20:12:25.052Z,30.08
2022-12-04T20:15:27.260Z,27.58
2022-12-04T20:18:30.186Z,26.80
2022-12-04T20:21:32.843Z,30.08
2022-12-04T20:24:35.659Z,29.00
2022-12-04T20:27:37.960Z,27.48
2022-12-04T20:30:40.906Z,30.62
2022-12-04T20:33:44.160Z,27.98
2022-12-04T20:36:51.224Z,26.60
2022-12-04T20:39:56.898Z,29.00
2022-12-04T20:42:59.711Z,28.17
2022-12-04T20:46:02.176Z,29.17
2022-12-04T20:49:08.010Z,27.80
2022-12-04T20:52:11.182Z,27.40
2022-12-04T20:55:13.741Z,30.05
2022-12-04T20:58:16.020Z,27.05
2022-12-04T21:01:19.392Z,28.02
2022-12-04T21:04:22.126Z,29.97
2022-12-04T21:07:24.857Z,30.20
2022-12-04T21:10:27.262Z,27.13
2022-12-04T21:13:48.388Z,25.08
2022-12-04T21:16:51.076Z,26.62
2022-12-04T21:19:53.642Z,26.80
2022-12-04T21:22:56.119Z,25.88
2022-12-04T21:25:58.651Z,25.27
2022-12-04T21:29:02.272Z,27.95
2022-12-04T21:32:06.229Z,25.80
2022-12-04T21:35:08.818Z,24.90
2022-12-04T21:38:11.303Z,25.90
2022-12-04T21:41:36.613Z,26.00
2022-12-04T21:44:39.218Z,26.00
2022-12-04T21:47:41.546Z,27.90
2022-12-04T21:50:44.147Z,28.92
2022-12-04T21:53:46.473Z,25.40
2022-12-04T21:56:48.999Z,24.15
2022-12-04T21:59:52.382Z,30.00
2022-12-04T22:02:54.996Z,25.90
2022-12-04T22:05:59.994Z,24.75
2022-12-04T22:09:03.945Z,27.77
2022-12-04T22:12:26.275Z,27.42
2022-12-04T22:15:29.107Z,23.17
2022-12-04T22:18:33.596Z,24.87
2022-12-04T22:21:35.841Z,22.52
2022-12-04T22:24:38.378Z,22.87
2022-12-04T22:27:40.732Z,18.35
2022-12-04T22:30:43.607Z,23.52
2022-12-04T22:33:48.204Z,20.95
2022-12-04T22:36:50.893Z,18.20
2022-12-04T22:39:53.163Z,16.23
2022-12-04T22:42:55.686Z,15.43
2022-12-04T22:45:58.863Z,15.85
2022-12-04T22:49:01.437Z,14.55
2022-12-04T22:52:03.829Z,13.48
2022-12-04T22:55:06.571Z,10.77
2022-12-04T22:58:08.802Z,10.32
2022-12-04T23:01:22.675Z,9.38
2022-12-04T23:04:24.961Z,11.70
2022-12-04T23:07:27.462Z,8.10
2022-12-04T23:10:29.810Z,8.43
2022-12-04T23:13:32.384Z,7.93
2022-12-04T23:16:37.096Z,8.38
2022-12-04T23:19:39.695Z,10.32
2022-12-04T23:22:41.961Z,7.37
2022-12-04T23:25:44.468Z,14.60
2022-12-04T23:28:47.391Z,7.68
2022-12-04T23:31:50.006Z,7.53
2022-12-04T23:34:53.131Z,5.32
2022-12-04T23:37:55.659Z,6.45
2022-12-04T23:41:03.000Z,7.62
2022-12-04T23:44:05.519Z,7.57
2022-12-04T23:47:07.732Z,6.70
2022-12-04T23:50:10.598Z,9.30
2022-12-04T23:53:13.114Z,10.48
2022-12-04T23:56:17.425Z,9.07
